Time;durP1;ratioP1;P1;durP2;ratioP2;P2;SDS_P1;SDS_P2;PMS_P1;PMS_P2;Temp;Humidity;BMP_temperature;BMP_pressure;BME280_temperature;BME280_humidity;BME280_pressure;Samples;Min_cycle;Max_cycle;Signal;HPM_P1;HPM_P2
2022/02/08 00:02:00;;;;;;;10.57;2.45;;;;;;;10.15;54.16;102568.63;4967089;28;124968;-80
2022/02/08 00:04:30;;;;;;;9.23;2.45;;;;;;;10.16;54.22;102567.75;4969265;28;123819;-79
2022/02/08 00:07:01;;;;;;;8.32;2.58;;;;;;;10.19;54.34;102554.47;4967125;28;119529;-79
2022/02/08 00:09:29;;;;;;;10.15;2.75;;;;;;;10.19;54.47;102551.81;4967828;28;118841;-79
2022/02/08 00:11:57;;;;;;;9.52;2.67;;;;;;;10.20;54.18;102550.91;4983791;28;123240;-79
2022/02/08 00:14:24;;;;;;;12.52;3.15;;;;;;;10.22;54.23;102554.41;4967936;28;123088;-80
2022/02/08 00:16:52;;;;;;;10.38;2.90;;;;;;;10.23;54.76;102556.16;4967324;28;118975;-80
2022/02/08 00:19:19;;;;;;;12.35;3.28;;;;;;;10.25;54.46;102551.72;4968816;28;118736;-79
2022/02/08 00:21:46;;;;;;;13.90;3.72;;;;;;;10.26;54.74;102550.78;4966406;28;122905;-79
2022/02/08 00:24:14;;;;;;;10.60;3.03;;;;;;;10.27;54.51;102547.25;4968757;28;123568;-80
2022/02/08 00:26:41;;;;;;;15.32;3.78;;;;;;;10.27;54.57;102544.59;4967385;28;119334;-80
2022/02/08 00:29:08;;;;;;;12.88;3.90;;;;;;;10.28;54.96;102538.44;4984027;28;119603;-80
2022/02/08 00:31:35;;;;;;;11.23;3.60;;;;;;;10.27;54.85;102531.38;4966525;28;123324;-80
2022/02/08 00:34:04;;;;;;;13.30;3.80;;;;;;;10.27;54.97;102536.66;4983550;28;123482;-80
2022/02/08 00:36:31;;;;;;;20.48;4.10;;;;;;;10.27;55.28;102536.66;4967280;28;118708;-80
2022/02/08 00:38:58;;;;;;;15.93;4.05;;;;;;;10.28;55.30;102535.78;4968976;28;119530;-79
2022/02/08 00:41:27;;;;;;;14.77;4.10;;;;;;;10.29;55.41;102539.28;4967456;28;123649;-79
2022/02/08 00:46:38;;;;;;;12.63;3.92;;;;;;;10.31;55.54;102533.09;4968179;28;120120;-79
2022/02/08 00:49:08;;;;;;;13.85;3.97;;;;;;;10.31;55.13;102538.38;4967218;28;119308;-80
2022/02/08 00:51:42;;;;;;;14.15;4.10;;;;;;;10.31;55.32;102535.75;4984158;28;123572;-78
2022/02/08 00:54:11;;;;;;;16.10;4.13;;;;;;;10.32;55.60;102528.66;4968307;28;123054;-80
2022/02/08 00:56:39;;;;;;;11.77;4.32;;;;;;;10.32;55.56;102529.56;4968114;28;119252;-80
2022/02/08 00:59:07;;;;;;;18.20;5.20;;;;;;;10.32;55.80;102540.16;4968289;28;118491;-80
2022/02/08 01:01:37;;;;;;;14.63;4.85;;;;;;;10.31;55.62;102522.50;4968101;28;122733;-80
2022/02/08 01:04:07;;;;;;;14.68;4.50;;;;;;;10.32;56.12;102537.50;4952792;28;123442;-80
2022/02/08 01:06:35;;;;;;;17.42;4.90;;;;;;;10.33;56.22;102530.44;4967399;28;118854;-79
2022/02/08 01:09:19;;;;;;;15.77;5.05;;;;;;;10.36;56.18;102540.09;4968158;28;118039;-80
2022/02/08 01:11:51;;;;;;;13.98;5.50;;;;;;;10.37;56.23;102531.25;4977980;28;123279;-78
2022/02/08 01:14:19;;;;;;;16.85;5.63;;;;;;;10.38;56.43;102544.47;4992822;28;124557;-79
2022/02/08 01:16:46;;;;;;;15.75;5.65;;;;;;;10.39;56.46;102529.44;5009919;28;118430;-79
2022/02/08 01:19:14;;;;;;;16.10;5.97;;;;;;;10.41;56.83;102527.66;4992780;28;118444;-77
2022/02/08 01:21:41;;;;;;;19.08;6.50;;;;;;;10.42;56.72;102529.41;5009363;28;122758;-78
2022/02/08 01:24:09;;;;;;;15.57;6.05;;;;;;;10.41;56.89;102528.50;4992757;28;125561;-79
2022/02/08 01:26:45;;;;;;;13.65;6.32;;;;;;;10.43;56.87;102523.19;4968697;28;118974;-79
2022/02/08 01:29:37;;;;;;;13.45;5.82;;;;;;;10.44;57.03;102538.19;4984603;28;119317;-79
2022/02/08 01:32:21;;;;;;;15.98;5.95;;;;;;;10.44;57.02;102527.59;4967595;28;124018;-80
2022/02/08 01:37:47;;;;;;;14.90;5.95;;;;;;;10.46;57.19;102541.69;4944339;28;119748;-80
2022/02/08 01:43:24;;;;;;;16.92;5.93;;;;;;;10.49;57.78;102546.91;4968393;28;123965;-79
2022/02/08 01:48:28;;;;;;;13.15;5.82;;;;;;;10.52;57.82;102549.53;4971311;28;120032;-80
2022/02/08 01:50:56;;;;;;;12.30;5.95;;;;;;;10.55;58.06;102554.78;4969398;28;118976;-80
2022/02/08 01:53:23;;;;;;;14.25;5.75;;;;;;;10.56;58.01;102535.31;4987513;28;124284;-80
2022/02/08 01:55:51;;;;;;;12.73;6.13;;;;;;;10.58;58.08;102538.81;4986185;28;123110;-80
2022/02/08 01:58:22;;;;;;;12.48;5.97;;;;;;;10.61;58.14;102536.13;4970357;28;117809;-80
2022/02/08 02:00:54;;;;;;;14.43;6.30;;;;;;;10.62;58.54;102532.56;4970382;28;118219;-79
2022/02/08 02:03:22;;;;;;;13.52;6.45;;;;;;;10.62;58.22;102524.59;4985379;28;123871;-80
2022/02/08 02:05:52;;;;;;;16.30;6.82;;;;;;;10.64;58.40;102525.47;4970384;28;123929;-80
2022/02/08 02:08:20;;;;;;;14.45;6.60;;;;;;;10.66;58.52;102518.38;4969366;28;118617;-79
2022/02/08 02:10:51;;;;;;;14.65;6.50;;;;;;;10.69;58.44;102528.88;4968739;28;119186;-79
2022/02/08 02:13:42;;;;;;;18.33;6.70;;;;;;;10.69;58.58;102522.72;4982536;28;123322;-80
2022/02/08 02:16:18;;;;;;;15.93;5.90;;;;;;;10.73;58.58;102534.16;4987874;28;123326;-80
2022/02/08 02:18:46;;;;;;;13.20;5.60;;;;;;;10.75;58.53;102527.91;4986478;28;120316;-80
2022/02/08 02:21:16;;;;;;;15.63;6.45;;;;;;;10.77;58.81;102525.22;4971261;28;117636;-80
2022/02/08 02:23:48;;;;;;;13.27;6.15;;;;;;;10.78;58.91;102516.41;4970565;28;123961;-80
2022/02/08 02:26:23;;;;;;;14.20;6.00;;;;;;;10.80;58.93;102519.88;4972461;28;122895;-80
2022/02/08 02:28:50;;;;;;;15.18;6.22;;;;;;;10.82;58.82;102512.78;4987131;28;120513;-81
2022/02/08 02:31:19;;;;;;;16.33;5.95;;;;;;;10.83;58.92;102515.41;4986496;28;119113;-79
2022/02/08 02:33:47;;;;;;;11.63;6.50;;;;;;;10.85;58.99;102503.00;4985717;28;123492;-80
2022/02/08 02:36:14;;;;;;;13.48;5.93;;;;;;;10.87;59.08;102500.31;4985488;28;122979;-80
2022/02/08 02:38:42;;;;;;;16.35;6.20;;;;;;;10.88;58.79;102502.91;5001742;28;119730;-81
2022/02/08 02:41:12;;;;;;;13.18;6.15;;;;;;;10.90;59.25;102505.53;4969538;28;117276;-81
2022/02/08 02:43:41;;;;;;;15.82;6.90;;;;;;;10.92;59.11;102501.06;4985074;28;123651;-81
2022/02/08 02:46:08;;;;;;;14.15;6.32;;;;;;;10.94;59.18;102501.91;4985880;28;123127;-80
2022/02/08 02:48:35;;;;;;;14.15;6.63;;;;;;;10.95;59.30;102508.97;4986610;28;119321;-80
2022/02/08 02:51:03;;;;;;;16.75;7.00;;;;;;;10.97;59.33;102512.47;4984902;28;119743;-79
2022/02/08 02:53:39;;;;;;;13.35;6.78;;;;;;;10.99;59.22;102521.25;4984523;28;123497;-80
2022/02/08 02:56:14;;;;;;;13.88;6.75;;;;;;;11.01;59.17;102506.19;4969636;28;123015;-80
2022/02/08 02:58:41;;;;;;;12.48;7.03;;;;;;;11.03;59.56;102500.88;4984879;28;118810;-80
2022/02/08 03:01:23;;;;;;;12.63;6.60;;;;;;;11.07;59.40;102508.72;4968316;28;118509;-80
2022/02/08 03:18:09;;;;;;;14.40;7.00;;;;;;;11.15;59.79;102515.66;4987896;28;123225;-80
2022/02/08 03:20:36;;;;;;;13.32;6.72;;;;;;;11.18;59.69;102526.22;4987801;28;119555;-80
2022/02/08 03:23:08;;;;;;;13.80;6.72;;;;;;;11.21;59.96;102521.72;4972295;28;119139;-79
2022/02/08 03:25:36;;;;;;;11.75;6.22;;;;;;;11.25;59.88;102522.53;4988388;28;123969;-80
2022/02/08 03:28:13;;;;;;;9.75;5.85;;;;;;;11.27;59.92;102528.66;4988705;28;122903;-80
2022/02/08 03:30:40;;;;;;;11.70;5.78;;;;;;;11.30;59.79;102525.94;4989131;28;118505;-80
2022/02/08 03:33:09;;;;;;;12.02;6.20;;;;;;;11.32;60.00;102526.81;4991068;28;118905;-80
2022/02/08 03:35:39;;;;;;;11.20;5.72;;;;;;;11.34;60.04;102525.00;4990833;28;123542;-80
2022/02/08 03:38:08;;;;;;;10.75;5.50;;;;;;;11.37;60.36;102516.06;4986494;28;124293;-80
2022/02/08 03:40:42;;;;;;;11.85;6.25;;;;;;;11.39;60.14;102520.44;5011116;28;118837;-80
2022/02/08 03:43:15;;;;;;;9.43;5.50;;;;;;;11.41;60.11;102528.38;5010756;28;118674;-80
2022/02/08 03:45:47;;;;;;;11.07;5.45;;;;;;;11.43;60.34;102515.94;5011007;28;123124;-79
2022/02/08 03:48:20;;;;;;;12.70;5.90;;;;;;;11.45;60.04;102520.31;4994132;28;123335;-80
2022/02/08 03:50:54;;;;;;;11.90;5.50;;;;;;;11.48;60.24;102533.50;5011126;28;117603;-79
2022/02/08 03:53:25;;;;;;;13.23;5.80;;;;;;;11.50;60.43;102534.34;5010216;28;118828;-79
2022/02/08 03:55:53;;;;;;;12.25;5.63;;;;;;;11.52;60.30;102530.78;5010539;28;123488;-80
2022/02/08 03:58:21;;;;;;;10.10;5.68;;;;;;;11.54;60.16;102518.38;5009923;28;124798;-79
2022/02/08 04:03:38;;;;;;;;;;;;;;;11.57;60.13;102526.28;5012166;28;119769;-80
2022/02/08 04:06:06;;;;;;;12.82;5.20;;;;;;;11.60;60.08;102528.84;4999100;28;124957;-80
2022/02/08 04:08:34;;;;;;;11.75;5.38;;;;;;;11.61;59.98;102538.56;4994199;28;123631;-80
2022/02/08 04:11:02;;;;;;;11.93;6.13;;;;;;;11.62;60.39;102553.56;4991846;28;120336;-81
2022/02/08 04:13:37;;;;;;;12.13;5.80;;;;;;;11.62;60.05;102542.94;4992105;28;120506;-80
2022/02/08 04:16:21;;;;;;;10.82;5.90;;;;;;;11.64;60.38;102535.81;4991853;28;123370;-80
2022/02/08 04:19:10;;;;;;;15.55;5.20;;;;;;;11.65;60.32;102542.88;5005936;28;125015;-80
2022/02/08 04:33:00;;;;;;;7.95;4.28;;;;;;;11.62;60.42;102532.31;4992099;28;119136;-80
2022/02/08 04:35:57;;;;;;;8.20;4.68;;;;;;;11.64;60.47;102530.50;4991298;28;120063;-80
2022/02/08 04:46:32;;;;;;;9.07;4.53;;;;;;;11.69;60.24;102533.94;4991136;28;118025;-80
2022/02/08 04:48:59;;;;;;;8.45;4.43;;;;;;;11.69;60.48;102528.63;4989866;28;123929;-80
2022/02/08 04:51:37;;;;;;;12.65;4.65;;;;;;;11.70;60.51;102527.75;4989402;28;124641;-80
2022/02/08 04:56:41;;;;;;;9.73;5.07;;;;;;;11.71;60.59;102526.81;4990870;28;118287;-80
2022/02/08 05:02:03;;;;;;;10.52;5.00;;;;;;;11.75;60.40;102532.94;4989984;28;124449;-80
2022/02/08 05:27:05;;;;;;;8.40;4.85;;;;;;;11.78;60.67;102523.13;4992843;28;119056;-80
2022/02/08 05:34:07;;;;;;;8.35;5.40;;;;;;;11.77;60.44;102510.78;4989564;28;119332;-80
2022/02/08 05:43:50;;;;;;;9.77;5.57;;;;;;;11.79;60.87;102503.63;4989799;28;124014;-80
2022/02/08 05:49:02;;;;;;;8.40;5.28;;;;;;;11.82;60.66;102506.19;4990210;28;120053;-81
2022/02/08 05:54:15;;;;;;;10.25;5.90;;;;;;;11.82;60.74;102506.19;4989115;28;123829;-80
2022/02/08 05:56:48;;;;;;;8.73;5.53;;;;;;;11.84;60.61;102506.16;4989225;28;124435;-80
2022/02/08 05:59:15;;;;;;;8.77;5.70;;;;;;;11.83;60.73;102500.00;4989281;28;119888;-80
2022/02/08 06:01:43;;;;;;;7.75;4.90;;;;;;;11.84;60.95;102496.41;5003671;28;119595;-81
2022/02/08 06:04:21;;;;;;;10.02;5.50;;;;;;;11.83;61.04;102500.00;4987562;28;123544;-80
2022/02/08 06:06:48;;;;;;;9.55;6.05;;;;;;;11.84;60.80;102501.72;4986453;28;122778;-81
2022/02/08 06:09:16;;;;;;;11.32;6.18;;;;;;;11.85;60.72;102502.63;4989224;28;118997;-81
2022/02/08 06:11:46;;;;;;;9.57;5.72;;;;;;;11.84;61.09;102512.34;4986625;28;118041;-80
2022/02/08 06:14:13;;;;;;;10.27;5.85;;;;;;;11.85;60.81;102503.50;4987342;28;123493;-80
2022/02/08 06:16:41;;;;;;;10.77;6.20;;;;;;;11.84;60.70;102501.72;4987292;28;123043;-80
2022/02/08 06:19:08;;;;;;;10.68;5.80;;;;;;;11.85;60.82;102502.63;4986899;28;118488;-80
2022/02/08 06:21:35;;;;;;;10.50;6.30;;;;;;;11.86;60.93;102499.91;4987578;28;119607;-80
2022/02/08 06:24:03;;;;;;;9.77;6.10;;;;;;;11.86;61.06;102505.22;4985560;28;123505;-80
2022/02/08 06:26:30;;;;;;;9.63;5.95;;;;;;;11.90;60.97;102505.19;4986527;28;122914;-80
2022/02/08 06:29:08;;;;;;;10.85;6.15;;;;;;;11.90;60.93;102497.22;4986655;28;118487;-80
2022/02/08 06:31:35;;;;;;;11.73;6.30;;;;;;;11.88;60.93;102507.84;4986159;28;118857;-79
2022/02/08 06:34:02;;;;;;;11.15;5.82;;;;;;;11.88;60.94;102514.03;4987218;28;123820;-80
2022/02/08 06:36:30;;;;;;;9.15;5.68;;;;;;;11.88;61.26;102503.44;4985209;28;123336;-80
2022/02/08 06:38:58;;;;;;;11.98;6.50;;;;;;;11.88;61.06;102508.75;4968708;28;118370;-80
2022/02/08 06:41:25;;;;;;;10.05;6.65;;;;;;;11.88;60.98;102508.75;4987268;28;118715;-80
2022/02/08 06:43:52;;;;;;;9.90;6.70;;;;;;;11.88;60.96;102508.75;4985315;28;123290;-80
2022/02/08 06:46:19;;;;;;;11.07;6.70;;;;;;;11.88;60.89;102516.69;5001789;28;124454;-80
2022/02/08 06:48:46;;;;;;;11.95;6.78;;;;;;;11.88;60.93;102514.03;4971401;28;120303;-80
2022/02/08 06:51:13;;;;;;;11.30;6.47;;;;;;;11.90;61.19;102521.13;4988107;28;119331;-80
2022/02/08 06:53:42;;;;;;;13.35;7.13;;;;;;;11.90;61.14;102521.97;4986541;28;124159;-81
2022/02/08 06:56:09;;;;;;;13.43;7.53;;;;;;;11.93;61.15;102529.03;4988012;28;123274;-81
2022/02/08 06:58:48;;;;;;;13.68;7.18;;;;;;;11.93;61.13;102523.72;4988088;28;118898;-79
2022/02/08 07:01:17;;;;;;;12.20;7.80;;;;;;;11.94;61.30;102529.00;4992624;28;118852;-80
2022/02/08 07:03:47;;;;;;;13.27;7.32;;;;;;;11.96;61.21;102526.28;4997593;28;124757;-80
2022/02/08 07:06:14;;;;;;;13.13;7.80;;;;;;;11.96;61.24;102526.28;4995927;28;124059;-80
2022/02/08 07:08:41;;;;;;;13.25;7.25;;;;;;;11.96;61.10;102532.47;5012876;28;118501;-80
2022/02/08 07:11:15;;;;;;;17.10;8.43;;;;;;;11.96;61.30;102526.28;4993924;28;118003;-81
2022/02/08 07:13:44;;;;;;;15.07;8.38;;;;;;;11.95;61.16;102529.84;4990546;28;123758;-80
2022/02/08 07:16:14;;;;;;;14.02;8.07;;;;;;;11.95;61.19;102540.47;4975206;28;122887;-80
2022/02/08 07:18:42;;;;;;;13.23;7.93;;;;;;;11.95;61.23;102535.16;4991842;28;118602;-81
2022/02/08 07:21:09;;;;;;;16.65;7.78;;;;;;;11.95;61.28;102546.66;4990534;28;117892;-80
2022/02/08 07:23:37;;;;;;;15.52;7.88;;;;;;;11.97;61.23;102549.28;4990508;28;124289;-81
2022/02/08 07:26:05;;;;;;;13.35;8.35;;;;;;;11.99;61.34;102552.78;4991966;28;123583;-80
2022/02/08 07:28:39;;;;;;;13.95;7.97;;;;;;;12.00;61.68;102546.56;4992708;28;118988;-80
2022/02/08 07:31:14;;;;;;;12.63;7.45;;;;;;;12.03;61.37;102543.81;4989482;28;118575;-80
2022/02/08 07:33:49;;;;;;;15.60;8.45;;;;;;;12.04;61.56;102557.06;4991168;28;123209;-80
2022/02/08 07:36:27;;;;;;;14.70;8.07;;;;;;;12.07;61.33;102556.09;4990122;28;123439;-79
2022/02/08 07:38:54;;;;;;;15.48;8.32;;;;;;;12.09;61.50;102551.63;5004242;28;119588;-80
2022/02/08 07:44:23;;;;;;;16.20;7.85;;;;;;;12.13;61.61;102555.97;4968733;28;124510;-81
2022/02/08 07:47:00;;;;;;;16.42;7.65;;;;;;;12.16;61.46;102555.88;4971168;28;126092;-81
2022/02/08 07:49:27;;;;;;;15.70;8.55;;;;;;;12.17;61.53;102557.66;4989109;28;119011;-80
2022/02/08 07:51:54;;;;;;;17.65;8.73;;;;;;;12.20;61.21;102552.25;4989083;28;118264;-80
2022/02/08 07:54:22;;;;;;;15.68;8.45;;;;;;;12.22;61.38;102550.44;4990447;28;124776;-81
2022/02/08 07:56:49;;;;;;;17.73;9.07;;;;;;;12.24;61.71;102559.25;4990781;28;124265;-80
2022/02/08 07:59:17;;;;;;;16.45;9.35;;;;;;;12.26;61.24;102557.44;4971918;28;117694;-80
2022/02/08 08:01:44;;;;;;;16.92;8.93;;;;;;;12.29;61.51;102558.25;4972856;28;118974;-81
2022/02/08 08:04:11;;;;;;;16.83;8.73;;;;;;;12.31;61.53;102559.09;5004874;28;122980;-80
2022/02/08 08:06:38;;;;;;;15.15;8.40;;;;;;;12.32;61.53;102572.34;4988365;28;123804;-80
2022/02/08 08:09:05;;;;;;;20.15;8.77;;;;;;;12.35;61.53;102568.72;4987705;28;118604;-80
2022/02/08 08:11:37;;;;;;;21.27;9.35;;;;;;;12.38;61.42;102571.31;4987368;28;118998;-80
2022/02/08 08:14:07;;;;;;;17.67;8.73;;;;;;;12.40;61.58;102569.50;4970818;28;124009;-80
2022/02/08 08:21:41;;;;;;;15.88;8.98;;;;;;;12.46;61.81;102574.66;4988959;28;119092;-81
2022/02/08 08:24:08;;;;;;;18.13;8.40;;;;;;;12.48;61.48;102578.13;4988078;28;122270;-80
2022/02/08 08:26:37;;;;;;;14.30;8.48;;;;;;;12.51;61.76;102588.69;4988410;28;123010;-81
2022/02/08 08:29:04;;;;;;;15.70;8.10;;;;;;;12.53;61.38;102580.69;4970431;28;119968;-80
2022/02/08 08:31:31;;;;;;;15.40;8.50;;;;;;;12.54;61.49;102593.91;4988533;28;119883;-80
2022/02/08 08:34:09;;;;;;;15.35;8.00;;;;;;;12.57;61.42;102588.53;4972213;28;123178;-80
2022/02/08 08:36:37;;;;;;;14.88;7.95;;;;;;;12.61;61.37;102599.97;4987015;28;122728;-80
2022/02/08 08:39:05;;;;;;;16.02;7.93;;;;;;;12.62;61.41;102581.31;4988749;28;119716;-81
2022/02/08 08:41:39;;;;;;;13.30;7.28;;;;;;;12.65;61.35;102591.88;4988243;28;118973;-80
2022/02/08 08:44:38;;;;;;;15.63;7.70;;;;;;;12.70;61.47;102588.25;4970578;28;122475;-81
2022/02/08 08:50:00;;;;;;;12.63;7.25;;;;;;;12.76;61.42;102578.31;4986186;28;117561;-80
2022/02/08 08:52:37;;;;;;;18.38;7.72;;;;;;;12.80;61.38;102579.97;4970163;28;119166;-81
2022/02/08 08:55:05;;;;;;;16.30;7.32;;;;;;;12.83;61.32;102579.03;4969768;28;124378;-80
2022/02/08 08:57:34;;;;;;;15.07;7.40;;;;;;;12.85;61.23;102577.19;4970399;28;123210;-81
2022/02/08 09:00:03;;;;;;;14.38;7.47;;;;;;;12.88;61.22;102586.88;4973084;28;118982;-79
2022/02/08 09:02:32;;;;;;;15.20;7.20;;;;;;;12.91;61.32;102582.34;4992176;28;118556;-80
2022/02/08 09:04:59;;;;;;;13.48;7.13;;;;;;;12.93;61.23;102588.50;5007264;28;122015;-80
2022/02/08 09:07:28;;;;;;;13.75;7.20;;;;;;;12.97;61.18;102587.47;4973906;28;124030;-81
2022/02/08 09:09:59;;;;;;;11.30;6.35;;;;;;;13.00;61.02;102592.72;4990487;28;119836;-80
2022/02/08 09:15:35;;;;;;;12.98;6.45;;;;;;;13.03;61.24;102595.31;4990041;28;123774;-80
2022/02/08 09:29:20;;;;;;;;;;;;;;;13.15;61.21;102601.22;5005205;28;123967;-79
2022/02/08 09:31:48;;;;;;;;;;;;;;;13.18;60.93;102606.44;4989550;28;118653;-81
2022/02/08 09:34:15;;;;;;;12.55;6.28;;;;;;;13.22;60.91;102602.78;4988691;28;118701;-80
2022/02/08 09:36:42;;;;;;;13.48;5.68;;;;;;;13.24;61.45;102598.28;4988697;28;123867;-80
2022/02/08 09:39:09;;;;;;;11.23;6.13;;;;;;;13.28;61.13;102601.72;4988453;28;123657;-80
2022/02/08 09:41:37;;;;;;;11.95;6.10;;;;;;;13.30;60.98;102583.94;4987793;28;119716;-80
2022/02/08 09:44:04;;;;;;;12.98;6.35;;;;;;;13.34;61.03;102591.81;4988207;28;119114;-81
2022/02/08 09:46:36;;;;;;;12.02;6.07;;;;;;;13.37;60.96;102590.84;4988000;28;124237;-80
2022/02/08 09:49:03;;;;;;;14.45;6.30;;;;;;;13.41;60.93;102585.41;4987674;28;124209;-80
2022/02/08 09:51:31;;;;;;;10.07;6.30;;;;;;;13.46;60.92;102589.72;4986625;28;118513;-81
2022/02/08 09:54:01;;;;;;;10.30;5.70;;;;;;;13.48;60.75;102582.56;4987399;28;119033;-81
2022/02/08 09:56:28;;;;;;;15.25;6.70;;;;;;;13.53;60.77;102581.53;4986872;28;123276;-80
2022/02/08 09:58:55;;;;;;;10.40;5.95;;;;;;;13.58;60.89;102578.69;4988480;28;123779;-80
2022/02/08 10:01:24;;;;;;;12.80;6.20;;;;;;;13.64;60.89;102583.88;5003921;28;119672;-80
2022/02/08 10:03:54;;;;;;;14.00;5.65;;;;;;;13.71;60.78;102585.44;4987407;28;118936;-81
2022/02/08 10:06:23;;;;;;;10.48;5.75;;;;;;;13.74;60.69;102572.00;4969787;28;123454;-80
2022/02/08 10:09:06;;;;;;;10.90;5.38;;;;;;;13.78;60.71;102576.31;4986133;28;123332;-81
2022/02/08 10:11:43;;;;;;;9.80;5.47;;;;;;;13.82;60.46;102572.66;4986290;28;120806;-80
2022/02/08 10:22:33;;;;;;;9.75;4.80;;;;;;;13.96;60.47;102574.03;4989813;28;119736;-80
2022/02/08 10:25:09;;;;;;;11.75;5.18;;;;;;;14.00;60.34;102575.66;4990650;28;117803;-80
2022/02/08 10:27:44;;;;;;;9.77;4.60;;;;;;;14.05;60.58;102584.34;4988643;28;124083;-80
2022/02/08 10:38:52;;;;;;;9.30;4.13;;;;;;;14.29;60.37;102582.69;4931510;28;123930;-81
2022/02/08 10:41:21;;;;;;;7.50;3.95;;;;;;;14.35;60.46;102576.28;4957266;28;123795;-80
2022/02/08 10:43:57;;;;;;;9.90;3.70;;;;;;;14.40;60.07;102577.03;4989895;28;120058;-81
2022/02/08 10:46:24;;;;;;;8.65;4.03;;;;;;;14.43;59.94;102579.59;4975126;28;118423;-81
2022/02/08 10:49:12;;;;;;;9.65;3.70;;;;;;;14.45;59.86;102580.41;4995227;28;123911;-80
2022/02/08 10:51:53;;;;;;;6.63;3.35;;;;;;;14.50;59.91;102581.09;5003988;28;124098;-82
2022/02/08 10:54:35;;;;;;;8.57;2.95;;;;;;;14.53;59.85;102591.69;5023721;28;119287;-80
2022/02/08 10:57:11;;;;;;;10.20;3.55;;;;;;;14.57;59.60;102592.50;5000200;28;117774;-81
2022/02/08 10:59:47;;;;;;;7.28;2.90;;;;;;;14.62;59.74;102595.00;4976264;28;121700;-79
2022/02/08 11:02:23;;;;;;;6.63;2.90;;;;;;;14.65;59.53;102600.22;5006837;28;123159;-81
2022/02/08 11:05:01;;;;;;;6.80;2.85;;;;;;;14.68;59.28;102597.47;4974704;28;119355;-80
2022/02/08 11:07:58;;;;;;;9.10;2.72;;;;;;;14.70;59.36;102587.63;4989748;28;119864;-81
2022/02/08 11:11:27;;;;;;;6.30;2.42;;;;;;;14.73;59.41;102582.16;4988518;28;123501;-80
2022/02/08 11:16:07;;;;;;;8.68;2.58;;;;;;;14.79;59.05;102587.31;4989714;28;118377;-81
2022/02/08 11:18:45;;;;;;;6.95;2.47;;;;;;;14.78;58.85;102581.06;4988949;28;118472;-81
2022/02/08 11:21:25;;;;;;;8.77;2.20;;;;;;;14.80;58.93;102583.69;4988865;28;123944;-81
2022/02/08 11:26:35;;;;;;;7.65;2.42;;;;;;;14.83;58.78;102580.94;4990111;28;118151;-80
2022/02/08 11:29:21;;;;;;;6.85;2.03;;;;;;;14.85;58.90;102581.75;4988355;28;118310;-81
2022/02/08 11:32:08;;;;;;;6.78;2.30;;;;;;;14.87;58.62;102579.88;4971349;28;122130;-80
2022/02/08 11:46:10;;;;;;;6.32;2.20;;;;;;;14.97;58.62;102565.31;4991687;28;123723;-81
2022/02/08 11:54:19;;;;;;;7.03;1.75;;;;;;;15.03;58.23;102563.31;4989845;28;123494;-80
2022/02/08 12:05:16;;;;;;;5.35;1.80;;;;;;;15.13;58.07;102559.41;4990488;28;123164;-80
2022/02/08 12:07:56;;;;;;;5.72;1.77;;;;;;;15.14;57.96;102553.13;4990672;28;123889;-80
2022/02/08 12:32:38;;;;;;;5.85;1.88;;;;;;;15.37;57.38;102547.81;4989867;28;119131;-80
2022/02/08 12:50:20;;;;;;;4.50;1.83;;;;;;;15.47;56.90;102558.16;4989585;28;123291;-80
2022/02/08 12:57:33;;;;;;;6.07;1.80;;;;;;;15.47;56.56;102563.50;4987198;28;120806;-81
2022/02/08 14:18:10;;;;;;;6.82;1.60;;;;;;;14.85;56.39;102596.88;5022267;28;107603;-66
2022/02/08 14:25:48;;;;;;;6.30;1.30;;;;;;;14.79;56.29;102593.50;5014447;28;107686;-66
2022/02/08 14:36:58;;;;;;;3.63;1.20;;;;;;;14.71;56.38;102584.91;5016140;28;106557;-66
2022/02/08 15:09:39;;;;;;;5.05;2.00;;;;;;;14.49;56.81;102586.53;5015615;28;107754;-66
2022/02/08 15:14:47;;;;;;;5.55;2.22;;;;;;;14.49;57.04;102578.53;5013054;28;124145;-66
2022/02/08 15:17:15;;;;;;;3.70;2.30;;;;;;;14.51;56.82;102577.53;5015045;28;123224;-66
2022/02/08 15:19:45;;;;;;;6.30;2.22;;;;;;;14.51;56.80;102582.88;5014337;28;107801;-66
2022/02/08 15:22:12;;;;;;;5.60;2.17;;;;;;;14.53;56.92;102581.03;5015067;28;107570;-66
2022/02/08 15:24:41;;;;;;;5.55;2.50;;;;;;;14.55;57.01;102586.31;5014950;28;123835;-66
2022/02/08 15:27:11;;;;;;;9.20;2.40;;;;;;;14.55;56.84;102584.50;5015335;28;124026;-68
2022/02/08 15:29:39;;;;;;;4.90;2.05;;;;;;;14.55;56.91;102589.84;5011944;28;107915;-66
2022/02/08 15:32:12;;;;;;;5.82;2.20;;;;;;;14.55;56.80;102589.84;5013436;28;107372;-67
2022/02/08 15:34:40;;;;;;;5.63;2.30;;;;;;;14.55;56.80;102589.84;5014486;28;124527;-66
2022/02/08 15:37:07;;;;;;;5.63;2.60;;;;;;;14.55;56.85;102589.84;5014784;28;124591;-66
2022/02/08 15:39:34;;;;;;;8.80;2.47;;;;;;;14.56;56.83;102580.03;5014665;28;107719;-66
2022/02/08 15:42:02;;;;;;;8.93;2.42;;;;;;;14.56;56.78;102585.38;5011243;28;107355;-66
2022/02/08 15:44:31;;;;;;;6.82;2.10;;;;;;;14.55;56.77;102579.16;5013406;28;124639;-66
2022/02/08 15:47:04;;;;;;;7.18;2.38;;;;;;;14.54;56.74;102581.88;5012716;28;123844;-66
2022/02/08 15:49:33;;;;;;;5.88;2.17;;;;;;;14.53;56.74;102581.03;5014955;28;106476;-66
2022/02/08 15:52:16;;;;;;;8.80;2.10;;;;;;;14.53;56.79;102583.69;5015234;28;107239;-66
2022/02/08 15:54:49;;;;;;;6.65;2.15;;;;;;;14.53;56.78;102591.69;5012085;28;124846;-66
2022/02/08 16:08:33;;;;;;;8.65;3.28;;;;;;;14.47;56.76;102602.56;5012075;28;124319;-66
2022/02/08 16:13:54;;;;;;;7.18;4.10;;;;;;;14.45;56.77;102608.84;5014947;28;107190;-68
2022/02/08 16:18:57;;;;;;;6.85;4.57;;;;;;;14.43;56.85;102611.59;5014155;28;124227;-66
2022/02/08 16:56:07;;;;;;;10.13;5.75;;;;;;;14.22;57.06;102607.81;5013450;28;107177;-67
2022/02/08 16:58:44;;;;;;;10.88;5.25;;;;;;;14.21;56.98;102601.59;5011099;28;124420;-67
2022/02/08 17:01:17;;;;;;;10.35;5.45;;;;;;;14.20;56.96;102604.31;5008698;28;124491;-66
2022/02/08 17:03:50;;;;;;;8.18;5.60;;;;;;;14.19;57.00;102608.78;5012469;28;107894;-67
2022/02/08 17:06:20;;;;;;;9.40;6.10;;;;;;;14.19;57.00;102614.13;5013117;28;106250;-67
2022/02/08 17:08:53;;;;;;;9.88;5.88;;;;;;;14.18;56.96;102623.03;5009500;28;123924;-66
2022/02/08 17:11:27;;;;;;;7.38;5.47;;;;;;;14.18;56.94;102620.38;5012665;28;123766;-67
2022/02/08 17:16:54;;;;;;;8.88;5.38;;;;;;;14.17;56.86;102626.63;5013150;28;106191;-68
2022/02/08 17:46:36;;;;;;;6.47;3.33;;;;;;;14.16;56.85;102651.50;5009603;28;110230;-67
2022/02/08 17:49:03;;;;;;;4.22;2.90;;;;;;;14.17;56.71;102652.41;5010301;28;110249;-67
2022/02/08 17:51:30;;;;;;;4.70;3.13;;;;;;;14.17;56.79;102666.59;5008941;28;124698;-67
2022/02/08 17:54:15;;;;;;;6.93;3.10;;;;;;;14.17;56.85;102663.06;5013784;28;123926;-67
2022/02/08 17:56:43;;;;;;;7.40;2.97;;;;;;;14.18;56.84;102673.69;5013488;28;109688;-67
2022/02/08 17:59:11;;;;;;;5.57;2.83;;;;;;;14.18;56.63;102675.44;5013469;28;109121;-67
2022/02/08 18:01:38;;;;;;;5.43;3.17;;;;;;;14.19;56.79;102659.41;5012303;28;123850;-66
2022/02/08 18:04:06;;;;;;;6.75;2.97;;;;;;;14.17;56.56;102658.59;5014391;28;124446;-67
2022/02/08 18:06:33;;;;;;;5.55;2.95;;;;;;;14.17;56.78;102663.94;5014905;28;109048;-67
2022/02/08 18:09:02;;;;;;;5.47;2.80;;;;;;;14.17;56.64;102658.59;5015153;28;108802;-67
2022/02/08 18:11:35;;;;;;;5.63;3.05;;;;;;;14.17;56.63;102647.94;5011692;28;124122;-66
2022/02/08 18:14:04;;;;;;;5.95;3.20;;;;;;;14.18;56.52;102651.47;5014730;28;124569;-65
2022/02/08 18:16:34;;;;;;;7.72;3.45;;;;;;;14.17;56.56;102649.75;5012934;28;109721;-66
2022/02/08 18:19:10;;;;;;;6.90;3.45;;;;;;;14.17;56.49;102665.72;5014603;28;108534;-66
2022/02/08 18:21:56;;;;;;;6.03;3.75;;;;;;;14.15;56.67;102657.78;5010761;28;124101;-66
2022/02/08 18:24:41;;;;;;;8.38;3.70;;;;;;;14.17;56.54;102653.25;5012604;28;124648;-66